sensor_id;sensor_type;location;lat;lon;timestamp;P1;durP1;ratioP1;P2;durP2;ratioP2
22502;SDS011;11418;48.118;9.992;2023-09-07T00:02:29;12.38;;;7.05;;
22502;SDS011;11418;48.118;9.992;2023-09-07T00:06:30;9.48;;;7.45;;
22502;SDS011;11418;48.118;9.992;2023-09-07T00:10:31;10.07;;;7.88;;
22502;SDS011;11418;48.118;9.992;2023-09-07T00:14:35;12.00;;;8.27;;
22502;SDS011;11418;48.118;9.992;2023-09-07T00:18:36;13.43;;;8.93;;
22502;SDS011;11418;48.118;9.992;2023-09-07T00:22:37;10.93;;;7.88;;
22502;SDS011;11418;48.118;9.992;2023-09-07T00:26:38;12.98;;;8.35;;
22502;SDS011;11418;48.118;9.992;2023-09-07T00:30:38;13.77;;;8.30;;
22502;SDS011;11418;48.118;9.992;2023-09-07T00:34:39;11.48;;;8.15;;
22502;SDS011;11418;48.118;9.992;2023-09-07T00:38:40;8.95;;;7.07;;
22502;SDS011;11418;48.118;9.992;2023-09-07T00:42:41;11.32;;;7.47;;
22502;SDS011;11418;48.118;9.992;2023-09-07T00:46:42;10.35;;;7.53;;
22502;SDS011;11418;48.118;9.992;2023-09-07T00:50:44;11.38;;;7.63;;
22502;SDS011;11418;48.118;9.992;2023-09-07T00:54:45;12.70;;;8.13;;
22502;SDS011;11418;48.118;9.992;2023-09-07T00:58:45;10.23;;;7.78;;
22502;SDS011;11418;48.118;9.992;2023-09-07T01:02:46;7.53;;;6.72;;
22502;SDS011;11418;48.118;9.992;2023-09-07T01:06:50;11.30;;;6.63;;
22502;SDS011;11418;48.118;9.992;2023-09-07T01:10:56;9.15;;;6.75;;
22502;SDS011;11418;48.118;9.992;2023-09-07T01:14:56;10.40;;;6.75;;
22502;SDS011;11418;48.118;9.992;2023-09-07T01:18:58;9.27;;;6.82;;
22502;SDS011;11418;48.118;9.992;2023-09-07T01:22:59;11.20;;;6.75;;
22502;SDS011;11418;48.118;9.992;2023-09-07T01:27:02;9.15;;;7.30;;
22502;SDS011;11418;48.118;9.992;2023-09-07T01:31:04;10.43;;;7.95;;
22502;SDS011;11418;48.118;9.992;2023-09-07T01:35:06;10.52;;;7.40;;
22502;SDS011;11418;48.118;9.992;2023-09-07T01:39:10;9.65;;;7.75;;
22502;SDS011;11418;48.118;9.992;2023-09-07T01:43:11;11.60;;;8.43;;
22502;SDS011;11418;48.118;9.992;2023-09-07T01:47:12;12.18;;;8.95;;
22502;SDS011;11418;48.118;9.992;2023-09-07T01:51:12;10.05;;;7.78;;
22502;SDS011;11418;48.118;9.992;2023-09-07T01:55:13;9.98;;;7.47;;
22502;SDS011;11418;48.118;9.992;2023-09-07T01:59:13;8.98;;;7.35;;
22502;SDS011;11418;48.118;9.992;2023-09-07T02:03:14;10.25;;;7.55;;
22502;SDS011;11418;48.118;9.992;2023-09-07T02:07:14;10.25;;;6.85;;
22502;SDS011;11418;48.118;9.992;2023-09-07T02:11:15;14.07;;;7.35;;
22502;SDS011;11418;48.118;9.992;2023-09-07T02:15:15;10.57;;;7.55;;
22502;SDS011;11418;48.118;9.992;2023-09-07T02:19:16;9.27;;;7.57;;
22502;SDS011;11418;48.118;9.992;2023-09-07T02:23:16;10.63;;;7.80;;
22502;SDS011;11418;48.118;9.992;2023-09-07T02:27:17;11.13;;;7.53;;
22502;SDS011;11418;48.118;9.992;2023-09-07T02:31:17;9.30;;;6.45;;
22502;SDS011;11418;48.118;9.992;2023-09-07T02:35:18;11.25;;;7.22;;
22502;SDS011;11418;48.118;9.992;2023-09-07T02:39:18;9.90;;;7.07;;
22502;SDS011;11418;48.118;9.992;2023-09-07T02:43:20;10.63;;;7.13;;
22502;SDS011;11418;48.118;9.992;2023-09-07T02:47:20;14.52;;;7.78;;
22502;SDS011;11418;48.118;9.992;2023-09-07T02:51:21;10.20;;;7.93;;
22502;SDS011;11418;48.118;9.992;2023-09-07T02:55:22;12.40;;;8.70;;
22502;SDS011;11418;48.118;9.992;2023-09-07T02:59:22;11.57;;;9.07;;
22502;SDS011;11418;48.118;9.992;2023-09-07T03:03:23;13.10;;;8.50;;
22502;SDS011;11418;48.118;9.992;2023-09-07T03:07:24;11.75;;;8.65;;
22502;SDS011;11418;48.118;9.992;2023-09-07T03:11:25;11.90;;;8.00;;
22502;SDS011;11418;48.118;9.992;2023-09-07T03:15:25;11.15;;;8.05;;
22502;SDS011;11418;48.118;9.992;2023-09-07T03:19:27;10.02;;;7.95;;
22502;SDS011;11418;48.118;9.992;2023-09-07T03:23:28;14.00;;;8.80;;
22502;SDS011;11418;48.118;9.992;2023-09-07T03:27:30;12.20;;;8.77;;
22502;SDS011;11418;48.118;9.992;2023-09-07T03:31:31;14.38;;;8.27;;
22502;SDS011;11418;48.118;9.992;2023-09-07T03:35:31;12.73;;;8.10;;
22502;SDS011;11418;48.118;9.992;2023-09-07T03:39:32;13.88;;;8.77;;
22502;SDS011;11418;48.118;9.992;2023-09-07T03:43:33;14.82;;;9.57;;
22502;SDS011;11418;48.118;9.992;2023-09-07T03:47:33;15.13;;;9.77;;
22502;SDS011;11418;48.118;9.992;2023-09-07T03:51:34;12.52;;;9.38;;
22502;SDS011;11418;48.118;9.992;2023-09-07T03:55:41;14.57;;;8.68;;
22502;SDS011;11418;48.118;9.992;2023-09-07T03:59:42;11.57;;;8.20;;
22502;SDS011;11418;48.118;9.992;2023-09-07T04:03:43;13.38;;;7.45;;
22502;SDS011;11418;48.118;9.992;2023-09-07T04:07:43;11.15;;;7.95;;
22502;SDS011;11418;48.118;9.992;2023-09-07T04:11:44;12.73;;;8.30;;
22502;SDS011;11418;48.118;9.992;2023-09-07T04:15:45;13.77;;;8.60;;
22502;SDS011;11418;48.118;9.992;2023-09-07T04:19:45;13.30;;;9.73;;
22502;SDS011;11418;48.118;9.992;2023-09-07T04:23:46;14.25;;;8.80;;
22502;SDS011;11418;48.118;9.992;2023-09-07T04:27:46;11.13;;;8.40;;
22502;SDS011;11418;48.118;9.992;2023-09-07T04:31:47;12.55;;;8.30;;
22502;SDS011;11418;48.118;9.992;2023-09-07T04:35:47;11.93;;;8.10;;
22502;SDS011;11418;48.118;9.992;2023-09-07T04:39:50;10.32;;;7.45;;
22502;SDS011;11418;48.118;9.992;2023-09-07T04:43:52;13.25;;;7.95;;
22502;SDS011;11418;48.118;9.992;2023-09-07T04:47:53;14.75;;;9.07;;
22502;SDS011;11418;48.118;9.992;2023-09-07T04:51:53;11.98;;;8.27;;
22502;SDS011;11418;48.118;9.992;2023-09-07T04:55:54;13.43;;;9.25;;
22502;SDS011;11418;48.118;9.992;2023-09-07T04:59:55;13.07;;;9.18;;
22502;SDS011;11418;48.118;9.992;2023-09-07T05:03:55;15.65;;;9.60;;
22502;SDS011;11418;48.118;9.992;2023-09-07T05:07:56;12.50;;;9.30;;
22502;SDS011;11418;48.118;9.992;2023-09-07T05:11:56;14.25;;;10.10;;
22502;SDS011;11418;48.118;9.992;2023-09-07T05:15:58;18.83;;;10.35;;
22502;SDS011;11418;48.118;9.992;2023-09-07T05:20:00;20.38;;;11.02;;
22502;SDS011;11418;48.118;9.992;2023-09-07T05:24:01;15.88;;;9.60;;
22502;SDS011;11418;48.118;9.992;2023-09-07T05:28:01;11.85;;;9.60;;
22502;SDS011;11418;48.118;9.992;2023-09-07T05:32:02;14.90;;;9.40;;
22502;SDS011;11418;48.118;9.992;2023-09-07T05:36:03;12.43;;;9.85;;
22502;SDS011;11418;48.118;9.992;2023-09-07T05:40:03;12.40;;;9.38;;
22502;SDS011;11418;48.118;9.992;2023-09-07T05:44:04;12.98;;;9.02;;
22502;SDS011;11418;48.118;9.992;2023-09-07T05:48:05;11.75;;;9.30;;
22502;SDS011;11418;48.118;9.992;2023-09-07T05:52:07;11.75;;;8.60;;
22502;SDS011;11418;48.118;9.992;2023-09-07T05:56:07;11.75;;;9.32;;
22502;SDS011;11418;48.118;9.992;2023-09-07T06:00:08;13.23;;;9.43;;
22502;SDS011;11418;48.118;9.992;2023-09-07T06:04:09;11.90;;;9.23;;
22502;SDS011;11418;48.118;9.992;2023-09-07T06:08:10;14.27;;;9.55;;
22502;SDS011;11418;48.118;9.992;2023-09-07T06:12:10;11.38;;;8.90;;
22502;SDS011;11418;48.118;9.992;2023-09-07T06:16:11;12.15;;;8.55;;
22502;SDS011;11418;48.118;9.992;2023-09-07T06:20:11;11.40;;;9.30;;
22502;SDS011;11418;48.118;9.992;2023-09-07T06:24:12;9.23;;;7.75;;
22502;SDS011;11418;48.118;9.992;2023-09-07T06:28:14;12.32;;;8.32;;
22502;SDS011;11418;48.118;9.992;2023-09-07T06:32:15;11.82;;;8.82;;
22502;SDS011;11418;48.118;9.992;2023-09-07T06:36:15;11.45;;;9.05;;
22502;SDS011;11418;48.118;9.992;2023-09-07T06:40:16;13.95;;;10.45;;
22502;SDS011;11418;48.118;9.992;2023-09-07T06:44:17;12.02;;;9.70;;
22502;SDS011;11418;48.118;9.992;2023-09-07T06:48:18;13.85;;;10.23;;
22502;SDS011;11418;48.118;9.992;2023-09-07T06:52:19;17.10;;;12.48;;
22502;SDS011;11418;48.118;9.992;2023-09-07T06:56:19;18.75;;;12.20;;
22502;SDS011;11418;48.118;9.992;2023-09-07T07:00:20;14.80;;;12.30;;
22502;SDS011;11418;48.118;9.992;2023-09-07T07:04:20;13.32;;;10.55;;
22502;SDS011;11418;48.118;9.992;2023-09-07T07:08:21;14.35;;;11.85;;
22502;SDS011;11418;48.118;9.992;2023-09-07T07:12:22;14.75;;;10.82;;
22502;SDS011;11418;48.118;9.992;2023-09-07T07:16:23;16.10;;;11.10;;
22502;SDS011;11418;48.118;9.992;2023-09-07T07:20:24;14.90;;;11.25;;
22502;SDS011;11418;48.118;9.992;2023-09-07T07:24:24;13.88;;;10.50;;
22502;SDS011;11418;48.118;9.992;2023-09-07T07:28:25;12.52;;;9.85;;
22502;SDS011;11418;48.118;9.992;2023-09-07T07:32:25;11.07;;;8.15;;
22502;SDS011;11418;48.118;9.992;2023-09-07T07:36:26;10.85;;;9.32;;
22502;SDS011;11418;48.118;9.992;2023-09-07T07:40:26;13.25;;;9.93;;
22502;SDS011;11418;48.118;9.992;2023-09-07T07:44:27;10.70;;;9.02;;
22502;SDS011;11418;48.118;9.992;2023-09-07T07:48:28;11.05;;;9.30;;
22502;SDS011;11418;48.118;9.992;2023-09-07T07:52:29;11.93;;;10.05;;
22502;SDS011;11418;48.118;9.992;2023-09-07T07:56:30;12.25;;;8.60;;
22502;SDS011;11418;48.118;9.992;2023-09-07T08:00:30;9.93;;;8.25;;
22502;SDS011;11418;48.118;9.992;2023-09-07T08:04:31;11.50;;;8.50;;
22502;SDS011;11418;48.118;9.992;2023-09-07T08:08:32;8.32;;;7.53;;
22502;SDS011;11418;48.118;9.992;2023-09-07T08:12:32;7.80;;;6.85;;
22502;SDS011;11418;48.118;9.992;2023-09-07T08:16:33;8.50;;;6.97;;
22502;SDS011;11418;48.118;9.992;2023-09-07T08:20:34;9.32;;;6.80;;
22502;SDS011;11418;48.118;9.992;2023-09-07T08:24:35;8.13;;;7.10;;
22502;SDS011;11418;48.118;9.992;2023-09-07T08:28:35;8.85;;;6.20;;
22502;SDS011;11418;48.118;9.992;2023-09-07T08:32:36;7.38;;;6.47;;
22502;SDS011;11418;48.118;9.992;2023-09-07T08:36:38;6.70;;;6.00;;
22502;SDS011;11418;48.118;9.992;2023-09-07T08:40:38;9.10;;;6.35;;
22502;SDS011;11418;48.118;9.992;2023-09-07T08:44:41;9.43;;;6.47;;
22502;SDS011;11418;48.118;9.992;2023-09-07T08:48:46;9.07;;;6.05;;
22502;SDS011;11418;48.118;9.992;2023-09-07T08:52:48;7.38;;;5.97;;
22502;SDS011;11418;48.118;9.992;2023-09-07T08:56:52;7.30;;;5.80;;
22502;SDS011;11418;48.118;9.992;2023-09-07T09:00:53;7.88;;;6.22;;
22502;SDS011;11418;48.118;9.992;2023-09-07T09:04:56;8.38;;;6.35;;
22502;SDS011;11418;48.118;9.992;2023-09-07T09:08:57;7.00;;;6.30;;
22502;SDS011;11418;48.118;9.992;2023-09-07T09:12:58;6.75;;;5.70;;
22502;SDS011;11418;48.118;9.992;2023-09-07T09:17:01;7.63;;;6.22;;
22502;SDS011;11418;48.118;9.992;2023-09-07T09:21:02;7.82;;;6.80;;
22502;SDS011;11418;48.118;9.992;2023-09-07T09:25:03;8.48;;;5.97;;
22502;SDS011;11418;48.118;9.992;2023-09-07T09:29:05;6.60;;;6.00;;
22502;SDS011;11418;48.118;9.992;2023-09-07T09:33:05;7.60;;;6.03;;
22502;SDS011;11418;48.118;9.992;2023-09-07T09:37:12;7.05;;;5.90;;
22502;SDS011;11418;48.118;9.992;2023-09-07T09:41:14;6.00;;;5.38;;
22502;SDS011;11418;48.118;9.992;2023-09-07T09:45:18;8.55;;;6.22;;
22502;SDS011;11418;48.118;9.992;2023-09-07T09:49:20;9.32;;;6.28;;
22502;SDS011;11418;48.118;9.992;2023-09-07T09:53:22;17.20;;;6.13;;
22502;SDS011;11418;48.118;9.992;2023-09-07T09:57:23;6.10;;;5.50;;
22502;SDS011;11418;48.118;9.992;2023-09-07T10:01:24;6.82;;;5.70;;
22502;SDS011;11418;48.118;9.992;2023-09-07T10:05:25;8.60;;;6.10;;
22502;SDS011;11418;48.118;9.992;2023-09-07T10:09:34;6.75;;;5.78;;
22502;SDS011;11418;48.118;9.992;2023-09-07T10:13:36;5.93;;;5.32;;
22502;SDS011;11418;48.118;9.992;2023-09-07T10:17:37;10.63;;;9.50;;
22502;SDS011;11418;48.118;9.992;2023-09-07T10:21:39;6.78;;;5.70;;
22502;SDS011;11418;48.118;9.992;2023-09-07T10:25:40;9.40;;;5.60;;
22502;SDS011;11418;48.118;9.992;2023-09-07T10:29:41;9.15;;;5.82;;
22502;SDS011;11418;48.118;9.992;2023-09-07T10:33:46;7.22;;;6.03;;
22502;SDS011;11418;48.118;9.992;2023-09-07T10:37:47;8.50;;;5.75;;
22502;SDS011;11418;48.118;9.992;2023-09-07T10:41:48;6.35;;;5.53;;
22502;SDS011;11418;48.118;9.992;2023-09-07T10:45:48;6.57;;;5.80;;
22502;SDS011;11418;48.118;9.992;2023-09-07T10:49:49;7.97;;;6.15;;
22502;SDS011;11418;48.118;9.992;2023-09-07T10:53:50;8.13;;;6.28;;
22502;SDS011;11418;48.118;9.992;2023-09-07T10:57:50;9.35;;;5.32;;
22502;SDS011;11418;48.118;9.992;2023-09-07T11:01:51;8.20;;;6.07;;
22502;SDS011;11418;48.118;9.992;2023-09-07T11:05:56;8.10;;;5.57;;
22502;SDS011;11418;48.118;9.992;2023-09-07T11:09:59;8.73;;;5.75;;
22502;SDS011;11418;48.118;9.992;2023-09-07T11:14:01;8.38;;;5.60;;
22502;SDS011;11418;48.118;9.992;2023-09-07T11:18:05;8.30;;;5.70;;
22502;SDS011;11418;48.118;9.992;2023-09-07T11:22:09;6.97;;;5.35;;
22502;SDS011;11418;48.118;9.992;2023-09-07T11:26:10;16.67;;;6.65;;
22502;SDS011;11418;48.118;9.992;2023-09-07T11:30:11;6.60;;;6.00;;
22502;SDS011;11418;48.118;9.992;2023-09-07T11:34:12;8.23;;;5.65;;
22502;SDS011;11418;48.118;9.992;2023-09-07T11:38:15;9.27;;;5.45;;
22502;SDS011;11418;48.118;9.992;2023-09-07T11:42:16;17.55;;;6.47;;
22502;SDS011;11418;48.118;9.992;2023-09-07T11:46:17;9.27;;;6.35;;
22502;SDS011;11418;48.118;9.992;2023-09-07T11:50:18;5.97;;;5.38;;
22502;SDS011;11418;48.118;9.992;2023-09-07T11:54:18;6.25;;;5.57;;
22502;SDS011;11418;48.118;9.992;2023-09-07T11:58:19;8.93;;;6.10;;
22502;SDS011;11418;48.118;9.992;2023-09-07T12:02:19;6.30;;;5.50;;
22502;SDS011;11418;48.118;9.992;2023-09-07T12:06:21;6.68;;;5.57;;
22502;SDS011;11418;48.118;9.992;2023-09-07T12:10:23;8.07;;;5.03;;
22502;SDS011;11418;48.118;9.992;2023-09-07T12:14:23;6.40;;;5.63;;
22502;SDS011;11418;48.118;9.992;2023-09-07T12:18:24;6.85;;;5.70;;
22502;SDS011;11418;48.118;9.992;2023-09-07T12:22:25;5.72;;;5.10;;
22502;SDS011;11418;48.118;9.992;2023-09-07T12:26:25;7.05;;;5.95;;
22502;SDS011;11418;48.118;9.992;2023-09-07T12:30:26;8.30;;;5.50;;
22502;SDS011;11418;48.118;9.992;2023-09-07T12:34:26;6.50;;;5.90;;
22502;SDS011;11418;48.118;9.992;2023-09-07T12:38:27;7.05;;;5.53;;
22502;SDS011;11418;48.118;9.992;2023-09-07T12:42:29;7.43;;;5.85;;
22502;SDS011;11418;48.118;9.992;2023-09-07T12:46:30;9.15;;;5.80;;
22502;SDS011;11418;48.118;9.992;2023-09-07T12:50:31;11.88;;;5.97;;
22502;SDS011;11418;48.118;9.992;2023-09-07T12:54:31;7.18;;;5.35;;
22502;SDS011;11418;48.118;9.992;2023-09-07T12:58:32;6.63;;;5.45;;
22502;SDS011;11418;48.118;9.992;2023-09-07T13:02:33;9.18;;;5.80;;
22502;SDS011;11418;48.118;9.992;2023-09-07T13:06:33;6.50;;;5.90;;
22502;SDS011;11418;48.118;9.992;2023-09-07T13:10:34;7.57;;;5.97;;
22502;SDS011;11418;48.118;9.992;2023-09-07T13:14:34;6.80;;;5.93;;
22502;SDS011;11418;48.118;9.992;2023-09-07T13:18:35;9.75;;;5.68;;
22502;SDS011;11418;48.118;9.992;2023-09-07T13:22:35;8.80;;;5.43;;
22502;SDS011;11418;48.118;9.992;2023-09-07T13:26:36;7.32;;;5.45;;
22502;SDS011;11418;48.118;9.992;2023-09-07T13:30:37;6.07;;;5.45;;
22502;SDS011;11418;48.118;9.992;2023-09-07T13:34:37;6.75;;;5.57;;
22502;SDS011;11418;48.118;9.992;2023-09-07T13:38:38;6.72;;;5.65;;
22502;SDS011;11418;48.118;9.992;2023-09-07T13:42:41;6.68;;;5.70;;
22502;SDS011;11418;48.118;9.992;2023-09-07T13:46:43;11.45;;;5.72;;
22502;SDS011;11418;48.118;9.992;2023-09-07T13:50:44;9.25;;;5.80;;
22502;SDS011;11418;48.118;9.992;2023-09-07T13:54:44;6.32;;;5.43;;
22502;SDS011;11418;48.118;9.992;2023-09-07T13:58:45;9.50;;;6.05;;
22502;SDS011;11418;48.118;9.992;2023-09-07T14:02:46;7.10;;;5.47;;
22502;SDS011;11418;48.118;9.992;2023-09-07T14:06:46;6.55;;;5.93;;
22502;SDS011;11418;48.118;9.992;2023-09-07T14:10:47;6.65;;;5.95;;
22502;SDS011;11418;48.118;9.992;2023-09-07T14:14:48;7.63;;;5.55;;
22502;SDS011;11418;48.118;9.992;2023-09-07T14:18:49;6.93;;;5.93;;
22502;SDS011;11418;48.118;9.992;2023-09-07T14:22:49;6.15;;;5.50;;
22502;SDS011;11418;48.118;9.992;2023-09-07T14:26:50;8.75;;;6.20;;
22502;SDS011;11418;48.118;9.992;2023-09-07T14:30:51;8.82;;;6.00;;
22502;SDS011;11418;48.118;9.992;2023-09-07T14:34:54;7.68;;;6.22;;
22502;SDS011;11418;48.118;9.992;2023-09-07T14:38:54;9.50;;;6.22;;
22502;SDS011;11418;48.118;9.992;2023-09-07T14:42:55;6.65;;;5.95;;
22502;SDS011;11418;48.118;9.992;2023-09-07T14:46:57;10.10;;;5.82;;
22502;SDS011;11418;48.118;9.992;2023-09-07T14:50:58;8.38;;;5.28;;
22502;SDS011;11418;48.118;9.992;2023-09-07T14:54:58;6.35;;;5.75;;
22502;SDS011;11418;48.118;9.992;2023-09-07T14:58:59;5.78;;;5.15;;
22502;SDS011;11418;48.118;9.992;2023-09-07T15:03:00;6.78;;;5.82;;
22502;SDS011;11418;48.118;9.992;2023-09-07T15:07:01;7.28;;;5.80;;
22502;SDS011;11418;48.118;9.992;2023-09-07T15:11:02;8.55;;;6.00;;
22502;SDS011;11418;48.118;9.992;2023-09-07T15:15:02;8.75;;;6.00;;
22502;SDS011;11418;48.118;9.992;2023-09-07T15:19:03;8.43;;;6.18;;
22502;SDS011;11418;48.118;9.992;2023-09-07T15:23:04;6.93;;;6.10;;
22502;SDS011;11418;48.118;9.992;2023-09-07T15:27:11;8.25;;;6.45;;
22502;SDS011;11418;48.118;9.992;2023-09-07T15:31:12;7.57;;;5.78;;
22502;SDS011;11418;48.118;9.992;2023-09-07T15:35:13;10.27;;;6.45;;
22502;SDS011;11418;48.118;9.992;2023-09-07T15:39:13;8.45;;;5.60;;
22502;SDS011;11418;48.118;9.992;2023-09-07T15:43:14;8.48;;;5.90;;
22502;SDS011;11418;48.118;9.992;2023-09-07T15:47:15;7.90;;;5.85;;
22502;SDS011;11418;48.118;9.992;2023-09-07T15:51:16;6.35;;;5.75;;
22502;SDS011;11418;48.118;9.992;2023-09-07T15:55:16;9.02;;;6.35;;
22502;SDS011;11418;48.118;9.992;2023-09-07T15:59:20;6.80;;;5.65;;
22502;SDS011;11418;48.118;9.992;2023-09-07T16:03:20;8.70;;;5.50;;
22502;SDS011;11418;48.118;9.992;2023-09-07T16:07:21;5.70;;;5.10;;
22502;SDS011;11418;48.118;9.992;2023-09-07T16:11:22;7.32;;;5.97;;
22502;SDS011;11418;48.118;9.992;2023-09-07T16:15:22;7.43;;;5.38;;
22502;SDS011;11418;48.118;9.992;2023-09-07T16:19:23;6.88;;;5.30;;
22502;SDS011;11418;48.118;9.992;2023-09-07T16:23:23;6.57;;;5.35;;
22502;SDS011;11418;48.118;9.992;2023-09-07T16:27:24;8.05;;;5.80;;
22502;SDS011;11418;48.118;9.992;2023-09-07T16:31:24;7.07;;;5.50;;
22502;SDS011;11418;48.118;9.992;2023-09-07T16:35:25;6.63;;;5.20;;
22502;SDS011;11418;48.118;9.992;2023-09-07T16:39:26;11.68;;;5.63;;
22502;SDS011;11418;48.118;9.992;2023-09-07T16:43:26;8.23;;;5.38;;
22502;SDS011;11418;48.118;9.992;2023-09-07T16:47:27;7.70;;;5.03;;
22502;SDS011;11418;48.118;9.992;2023-09-07T16:51:27;7.40;;;5.57;;
22502;SDS011;11418;48.118;9.992;2023-09-07T16:55:28;6.28;;;5.28;;
22502;SDS011;11418;48.118;9.992;2023-09-07T16:59:28;7.75;;;5.15;;
22502;SDS011;11418;48.118;9.992;2023-09-07T17:03:29;8.30;;;5.00;;
22502;SDS011;11418;48.118;9.992;2023-09-07T17:07:29;7.75;;;4.95;;
22502;SDS011;11418;48.118;9.992;2023-09-07T17:11:30;8.63;;;5.25;;
22502;SDS011;11418;48.118;9.992;2023-09-07T17:15:30;8.95;;;5.25;;
22502;SDS011;11418;48.118;9.992;2023-09-07T17:19:31;7.40;;;5.07;;
22502;SDS011;11418;48.118;9.992;2023-09-07T17:23:31;10.32;;;4.95;;
22502;SDS011;11418;48.118;9.992;2023-09-07T17:27:32;7.80;;;5.55;;
22502;SDS011;11418;48.118;9.992;2023-09-07T17:31:33;9.25;;;5.47;;
22502;SDS011;11418;48.118;9.992;2023-09-07T17:35:36;13.68;;;5.90;;
22502;SDS011;11418;48.118;9.992;2023-09-07T17:39:37;22.73;;;6.18;;
22502;SDS011;11418;48.118;9.992;2023-09-07T17:43:38;24.50;;;6.68;;
22502;SDS011;11418;48.118;9.992;2023-09-07T17:47:39;13.23;;;7.13;;
22502;SDS011;11418;48.118;9.992;2023-09-07T17:51:40;10.73;;;6.40;;
22502;SDS011;11418;48.118;9.992;2023-09-07T17:55:40;9.85;;;6.40;;
22502;SDS011;11418;48.118;9.992;2023-09-07T17:59:41;13.35;;;6.85;;
22502;SDS011;11418;48.118;9.992;2023-09-07T18:03:41;13.25;;;6.70;;
22502;SDS011;11418;48.118;9.992;2023-09-07T18:07:42;7.50;;;6.65;;
22502;SDS011;11418;48.118;9.992;2023-09-07T18:11:43;9.82;;;6.93;;
22502;SDS011;11418;48.118;9.992;2023-09-07T18:15:46;7.43;;;6.63;;
22502;SDS011;11418;48.118;9.992;2023-09-07T18:19:48;8.50;;;6.10;;
22502;SDS011;11418;48.118;9.992;2023-09-07T18:23:49;8.32;;;6.32;;
22502;SDS011;11418;48.118;9.992;2023-09-07T18:27:50;13.57;;;6.47;;
22502;SDS011;11418;48.118;9.992;2023-09-07T18:31:51;11.63;;;5.90;;
22502;SDS011;11418;48.118;9.992;2023-09-07T18:35:58;8.25;;;5.72;;
22502;SDS011;11418;48.118;9.992;2023-09-07T18:40:03;8.55;;;5.88;;
22502;SDS011;11418;48.118;9.992;2023-09-07T18:44:04;6.95;;;5.70;;
22502;SDS011;11418;48.118;9.992;2023-09-07T18:48:04;7.75;;;5.68;;
22502;SDS011;11418;48.118;9.992;2023-09-07T18:52:05;9.00;;;5.75;;
22502;SDS011;11418;48.118;9.992;2023-09-07T18:56:06;7.95;;;5.97;;
22502;SDS011;11418;48.118;9.992;2023-09-07T19:00:08;7.60;;;6.20;;
22502;SDS011;11418;48.118;9.992;2023-09-07T19:04:09;12.35;;;6.20;;
22502;SDS011;11418;48.118;9.992;2023-09-07T19:08:11;8.13;;;6.45;;
22502;SDS011;11418;48.118;9.992;2023-09-07T19:12:12;10.02;;;7.35;;
22502;SDS011;11418;48.118;9.992;2023-09-07T19:16:13;11.90;;;8.63;;
22502;SDS011;11418;48.118;9.992;2023-09-07T19:20:14;10.05;;;7.22;;
22502;SDS011;11418;48.118;9.992;2023-09-07T19:24:15;11.02;;;8.25;;
22502;SDS011;11418;48.118;9.992;2023-09-07T19:28:16;11.55;;;8.02;;
22502;SDS011;11418;48.118;9.992;2023-09-07T19:32:17;12.38;;;8.45;;
22502;SDS011;11418;48.118;9.992;2023-09-07T19:36:19;10.02;;;7.90;;
22502;SDS011;11418;48.118;9.992;2023-09-07T19:40:20;14.98;;;8.75;;
22502;SDS011;11418;48.118;9.992;2023-09-07T19:44:21;14.35;;;8.55;;
22502;SDS011;11418;48.118;9.992;2023-09-07T19:48:23;10.70;;;7.53;;
22502;SDS011;11418;48.118;9.992;2023-09-07T19:52:23;12.07;;;7.82;;
22502;SDS011;11418;48.118;9.992;2023-09-07T19:56:25;12.30;;;8.60;;
22502;SDS011;11418;48.118;9.992;2023-09-07T20:00:26;12.35;;;8.73;;
22502;SDS011;11418;48.118;9.992;2023-09-07T20:04:28;10.32;;;8.63;;
22502;SDS011;11418;48.118;9.992;2023-09-07T20:08:29;11.18;;;9.07;;
22502;SDS011;11418;48.118;9.992;2023-09-07T20:12:29;12.13;;;8.82;;
22502;SDS011;11418;48.118;9.992;2023-09-07T20:16:30;15.75;;;9.27;;
22502;SDS011;11418;48.118;9.992;2023-09-07T20:20:30;11.18;;;8.90;;
22502;SDS011;11418;48.118;9.992;2023-09-07T20:24:31;12.45;;;8.60;;
22502;SDS011;11418;48.118;9.992;2023-09-07T20:28:31;10.57;;;8.32;;
22502;SDS011;11418;48.118;9.992;2023-09-07T20:32:32;14.80;;;8.68;;
22502;SDS011;11418;48.118;9.992;2023-09-07T20:36:32;17.40;;;9.45;;
22502;SDS011;11418;48.118;9.992;2023-09-07T20:40:33;10.45;;;8.60;;
22502;SDS011;11418;48.118;9.992;2023-09-07T20:44:33;11.70;;;8.93;;
22502;SDS011;11418;48.118;9.992;2023-09-07T20:48:34;10.18;;;8.43;;
22502;SDS011;11418;48.118;9.992;2023-09-07T20:52:35;11.45;;;8.57;;
22502;SDS011;11418;48.118;9.992;2023-09-07T20:56:35;9.27;;;7.90;;
22502;SDS011;11418;48.118;9.992;2023-09-07T21:00:36;10.30;;;9.02;;
22502;SDS011;11418;48.118;9.992;2023-09-07T21:04:37;11.10;;;8.10;;
22502;SDS011;11418;48.118;9.992;2023-09-07T21:08:37;9.95;;;8.25;;
22502;SDS011;11418;48.118;9.992;2023-09-07T21:12:40;10.18;;;7.82;;
22502;SDS011;11418;48.118;9.992;2023-09-07T21:16:41;8.40;;;7.55;;
22502;SDS011;11418;48.118;9.992;2023-09-07T21:20:42;12.40;;;8.73;;
22502;SDS011;11418;48.118;9.992;2023-09-07T21:24:42;10.18;;;8.65;;
22502;SDS011;11418;48.118;9.992;2023-09-07T21:28:43;10.95;;;8.40;;
22502;SDS011;11418;48.118;9.992;2023-09-07T21:32:43;10.82;;;8.73;;
22502;SDS011;11418;48.118;9.992;2023-09-07T21:36:44;10.50;;;8.80;;
22502;SDS011;11418;48.118;9.992;2023-09-07T21:40:44;13.15;;;9.15;;
22502;SDS011;11418;48.118;9.992;2023-09-07T21:44:49;11.63;;;8.60;;
22502;SDS011;11418;48.118;9.992;2023-09-07T21:48:50;10.20;;;8.95;;
22502;SDS011;11418;48.118;9.992;2023-09-07T21:52:51;12.88;;;8.13;;
22502;SDS011;11418;48.118;9.992;2023-09-07T21:56:51;13.20;;;9.75;;
22502;SDS011;11418;48.118;9.992;2023-09-07T22:00:52;13.27;;;8.38;;
22502;SDS011;11418;48.118;9.992;2023-09-07T22:04:52;14.05;;;10.38;;
22502;SDS011;11418;48.118;9.992;2023-09-07T22:08:53;15.63;;;9.70;;
22502;SDS011;11418;48.118;9.992;2023-09-07T22:12:55;10.77;;;9.23;;
22502;SDS011;11418;48.118;9.992;2023-09-07T22:16:59;10.68;;;9.07;;
22502;SDS011;11418;48.118;9.992;2023-09-07T22:21:01;10.77;;;9.25;;
22502;SDS011;11418;48.118;9.992;2023-09-07T22:25:02;11.63;;;9.07;;
22502;SDS011;11418;48.118;9.992;2023-09-07T22:29:03;15.32;;;9.52;;
22502;SDS011;11418;48.118;9.992;2023-09-07T22:33:04;13.40;;;9.70;;
22502;SDS011;11418;48.118;9.992;2023-09-07T22:37:05;10.63;;;9.07;;
22502;SDS011;11418;48.118;9.992;2023-09-07T22:41:06;13.88;;;10.05;;
22502;SDS011;11418;48.118;9.992;2023-09-07T22:45:06;13.30;;;10.00;;
22502;SDS011;11418;48.118;9.992;2023-09-07T22:49:07;12.50;;;9.13;;
22502;SDS011;11418;48.118;9.992;2023-09-07T22:53:08;13.45;;;10.02;;
22502;SDS011;11418;48.118;9.992;2023-09-07T22:57:08;13.30;;;10.85;;
22502;SDS011;11418;48.118;9.992;2023-09-07T23:01:09;18.52;;;11.00;;
22502;SDS011;11418;48.118;9.992;2023-09-07T23:05:10;14.57;;;10.20;;
22502;SDS011;11418;48.118;9.992;2023-09-07T23:09:10;18.77;;;9.82;;
22502;SDS011;11418;48.118;9.992;2023-09-07T23:13:11;11.52;;;9.10;;
22502;SDS011;11418;48.118;9.992;2023-09-07T23:17:11;15.23;;;9.75;;
22502;SDS011;11418;48.118;9.992;2023-09-07T23:21:12;11.90;;;9.88;;
22502;SDS011;11418;48.118;9.992;2023-09-07T23:25:12;12.95;;;9.30;;
22502;SDS011;11418;48.118;9.992;2023-09-07T23:29:13;12.93;;;10.70;;
22502;SDS011;11418;48.118;9.992;2023-09-07T23:33:13;15.20;;;11.25;;
22502;SDS011;11418;48.118;9.992;2023-09-07T23:37:14;14.52;;;10.82;;
22502;SDS011;11418;48.118;9.992;2023-09-07T23:41:14;13.20;;;10.35;;
22502;SDS011;11418;48.118;9.992;2023-09-07T23:45:15;12.40;;;8.45;;
22502;SDS011;11418;48.118;9.992;2023-09-07T23:49:15;18.08;;;9.73;;
22502;SDS011;11418;48.118;9.992;2023-09-07T23:53:16;14.40;;;9.32;;
22502;SDS011;11418;48.118;9.992;2023-09-07T23:57:16;11.73;;;9.73;;
